SDM6330 UMKK-ULLI
Flight info
| Callsign | SDM6330 |
|---|---|
| Flight time | 1h 22m |
| Altitude | 33000 |
| Route | PELUG3N PELUG DCT KEDUX DCT PIVAX DCT PINIX DCT PIRUX DCT PISIM DCT PIDIN DCT ARANS/K0848F330 DCT PISIS DCT AKARU AKARU1B |
| Aircraft | A319/M-SDE3FGHIRWY/LB1 |
Departure
| Time | 2026-05-05 16:56 |
|---|---|
| Airport | Khrabrovo Airport (UMKK) |
Arrival
| Time | 2026-05-05 18:18 |
|---|---|
| Airport | Pulkovo Airport (ULLI) |
| Time | Latitude | Longitude | Altitude | Speed | Heading |
|---|---|---|---|---|---|
| 2026-05-05 15:22 | 54.88396 | 20.58589 | 27 ft | 0 kts | 156° |
| 2026-05-05 16:44 | 54.88407 | 20.58580 | 27 ft | 4 kts | 152° |
| 2026-05-05 16:44 | 54.88429 | 20.58555 | 27 ft | 4 kts | 137° |
| 2026-05-05 16:44 | 54.88447 | 20.58521 | 27 ft | 4 kts | 132° |
| 2026-05-05 16:44 | 54.88464 | 20.58497 | 27 ft | 2 kts | 156° |
| 2026-05-05 16:45 | 54.88487 | 20.58479 | 27 ft | 3 kts | 155° |
| 2026-05-05 16:45 | 54.88491 | 20.58476 | 27 ft | 0 kts | 155° |
| 2026-05-05 16:51 | 54.88486 | 20.58480 | 27 ft | 3 kts | 155° |
| 2026-05-05 16:51 | 54.88460 | 20.58499 | 27 ft | 3 kts | 162° |
| 2026-05-05 16:51 | 54.88442 | 20.58488 | 27 ft | 5 kts | 219° |
| 2026-05-05 16:52 | 54.88420 | 20.58420 | 27 ft | 9 kts | 241° |
| 2026-05-05 16:52 | 54.88386 | 20.58325 | 27 ft | 8 kts | 238° |
| 2026-05-05 16:52 | 54.88359 | 20.58250 | 27 ft | 9 kts | 237° |
| 2026-05-05 16:52 | 54.88314 | 20.58129 | 27 ft | 12 kts | 236° |
| 2026-05-05 16:53 | 54.88281 | 20.58012 | 27 ft | 10 kts | 246° |
| 2026-05-05 16:53 | 54.88257 | 20.57920 | 27 ft | 7 kts | 246° |
| 2026-05-05 16:53 | 54.88235 | 20.57837 | 27 ft | 9 kts | 245° |
| 2026-05-05 16:53 | 54.88233 | 20.57746 | 26 ft | 7 kts | 305° |
| 2026-05-05 16:54 | 54.88279 | 20.57704 | 26 ft | 10 kts | 335° |
| 2026-05-05 16:54 | 54.88362 | 20.57640 | 26 ft | 15 kts | 335° |
| 2026-05-05 16:54 | 54.88452 | 20.57569 | 25 ft | 15 kts | 335° |
| 2026-05-05 16:54 | 54.88534 | 20.57505 | 20 ft | 9 kts | 336° |
| 2026-05-05 16:55 | 54.88566 | 20.57551 | 21 ft | 7 kts | 67° |
| 2026-05-05 16:55 | 54.88620 | 20.57758 | 21 ft | 47 kts | 66° |
| 2026-05-05 16:55 | 54.88852 | 20.58647 | 22 ft | 113 kts | 66° |
| 2026-05-05 16:55 | 54.89250 | 20.60183 | 29 ft | 164 kts | 65° |
| 2026-05-05 16:56 | 54.89707 | 20.61948 | 679 ft | 155 kts | 65° |
| 2026-05-05 16:56 | 54.90144 | 20.63665 | 1317 ft | 156 kts | 63° |
| 2026-05-05 16:56 | 54.90587 | 20.65399 | 1845 ft | 158 kts | 63° |
| 2026-05-05 16:56 | 54.91035 | 20.67152 | 2326 ft | 160 kts | 65° |
| 2026-05-05 16:57 | 54.91491 | 20.68931 | 2815 ft | 162 kts | 65° |
| 2026-05-05 16:57 | 54.91968 | 20.70727 | 3305 ft | 167 kts | 59° |
| 2026-05-05 16:57 | 54.92900 | 20.71983 | 3511 ft | 182 kts | 11° |
| 2026-05-05 16:57 | 54.94195 | 20.71823 | 3709 ft | 198 kts | 333° |
| 2026-05-05 16:58 | 54.95301 | 20.70223 | 3924 ft | 220 kts | 310° |
| 2026-05-05 16:58 | 54.96386 | 20.68125 | 4296 ft | 245 kts | 310° |
| 2026-05-05 16:58 | 54.97556 | 20.65840 | 4932 ft | 258 kts | 310° |
| 2026-05-05 16:58 | 54.98763 | 20.63492 | 5771 ft | 263 kts | 309° |
| 2026-05-05 16:59 | 54.99996 | 20.61103 | 6606 ft | 266 kts | 309° |
| 2026-05-05 16:59 | 55.01246 | 20.58690 | 7474 ft | 269 kts | 308° |
| 2026-05-05 16:59 | 55.02510 | 20.56261 | 8328 ft | 272 kts | 308° |
| 2026-05-05 16:59 | 55.03787 | 20.53806 | 9180 ft | 275 kts | 308° |
| 2026-05-05 17:00 | 55.05083 | 20.51317 | 10008 ft | 278 kts | 308° |
| 2026-05-05 17:00 | 55.06401 | 20.48775 | 10410 ft | 297 kts | 308° |
| 2026-05-05 17:00 | 55.07839 | 20.45991 | 10627 ft | 320 kts | 308° |
| 2026-05-05 17:00 | 55.09384 | 20.42993 | 10797 ft | 342 kts | 308° |
| 2026-05-05 17:01 | 55.11014 | 20.39839 | 11281 ft | 352 kts | 308° |
| 2026-05-05 17:01 | 55.12667 | 20.36649 | 11946 ft | 355 kts | 308° |
| 2026-05-05 17:01 | 55.14420 | 20.33579 | 12687 ft | 361 kts | 316° |
| 2026-05-05 17:01 | 55.16552 | 20.31152 | 13384 ft | 371 kts | 328° |
| 2026-05-05 17:02 | 55.18967 | 20.29415 | 14014 ft | 378 kts | 333° |
| 2026-05-05 17:02 | 55.21401 | 20.27764 | 14579 ft | 382 kts | 333° |
| 2026-05-05 17:02 | 55.23890 | 20.26068 | 15147 ft | 386 kts | 333° |
| 2026-05-05 17:02 | 55.26400 | 20.24345 | 15721 ft | 390 kts | 333° |
| 2026-05-05 17:03 | 55.28939 | 20.22591 | 16246 ft | 395 kts | 333° |
| 2026-05-05 17:03 | 55.31506 | 20.20817 | 16815 ft | 398 kts | 333° |
| 2026-05-05 17:03 | 55.34094 | 20.19033 | 17389 ft | 402 kts | 333° |
| 2026-05-05 17:03 | 55.36711 | 20.17231 | 17964 ft | 405 kts | 333° |
| 2026-05-05 17:04 | 55.39351 | 20.15408 | 18486 ft | 408 kts | 333° |
| 2026-05-05 17:04 | 55.42005 | 20.13570 | 18953 ft | 411 kts | 333° |
| 2026-05-05 17:04 | 55.44679 | 20.11713 | 19431 ft | 414 kts | 333° |
| 2026-05-05 17:04 | 55.47368 | 20.09845 | 19925 ft | 416 kts | 332° |
| 2026-05-05 17:05 | 55.50031 | 20.07993 | 20392 ft | 419 kts | 332° |
| 2026-05-05 17:05 | 55.52747 | 20.06097 | 20843 ft | 421 kts | 332° |
| 2026-05-05 17:05 | 55.55481 | 20.04184 | 21284 ft | 424 kts | 332° |
| 2026-05-05 17:05 | 55.58227 | 20.02257 | 21707 ft | 426 kts | 332° |
| 2026-05-05 17:06 | 55.60994 | 20.00314 | 22126 ft | 429 kts | 332° |
| 2026-05-05 17:06 | 55.63777 | 19.98360 | 22545 ft | 432 kts | 332° |
| 2026-05-05 17:06 | 55.66578 | 19.96393 | 22975 ft | 435 kts | 331° |
| 2026-05-05 17:06 | 55.69409 | 19.94403 | 23334 ft | 438 kts | 331° |
| 2026-05-05 17:07 | 55.72251 | 19.92399 | 23694 ft | 441 kts | 331° |
| 2026-05-05 17:07 | 55.75111 | 19.90378 | 24040 ft | 444 kts | 331° |
| 2026-05-05 17:07 | 55.77982 | 19.88347 | 24404 ft | 446 kts | 331° |
| 2026-05-05 17:07 | 55.80875 | 19.86300 | 24740 ft | 448 kts | 331° |
| 2026-05-05 17:08 | 55.83779 | 19.84245 | 25075 ft | 450 kts | 331° |
| 2026-05-05 17:08 | 55.86697 | 19.82178 | 25406 ft | 452 kts | 331° |
| 2026-05-05 17:08 | 55.89630 | 19.80093 | 25739 ft | 454 kts | 330° |
| 2026-05-05 17:08 | 55.92569 | 19.77993 | 26059 ft | 456 kts | 330° |
| 2026-05-05 17:09 | 55.95519 | 19.75879 | 26365 ft | 458 kts | 330° |
| 2026-05-05 17:09 | 55.98488 | 19.73753 | 26671 ft | 460 kts | 330° |
| 2026-05-05 17:09 | 56.01466 | 19.71623 | 26971 ft | 462 kts | 330° |
| 2026-05-05 17:09 | 56.04453 | 19.69483 | 27266 ft | 464 kts | 330° |
| 2026-05-05 17:10 | 56.07412 | 19.67356 | 27595 ft | 465 kts | 331° |
| 2026-05-05 17:10 | 56.10415 | 19.65190 | 28027 ft | 464 kts | 331° |
| 2026-05-05 17:10 | 56.13402 | 19.63036 | 28508 ft | 462 kts | 331° |
| 2026-05-05 17:10 | 56.16398 | 19.60957 | 28944 ft | 464 kts | 335° |
| 2026-05-05 17:11 | 56.19553 | 19.59558 | 29369 ft | 471 kts | 344° |
| 2026-05-05 17:11 | 56.22841 | 19.59064 | 29797 ft | 478 kts | 354° |
| 2026-05-05 17:11 | 56.26182 | 19.59519 | 30186 ft | 485 kts | 4° |
| 2026-05-05 17:11 | 56.29495 | 19.60832 | 30537 ft | 488 kts | 8° |
| 2026-05-05 17:12 | 56.32791 | 19.62268 | 30896 ft | 487 kts | 8° |
| 2026-05-05 17:12 | 56.36086 | 19.63693 | 31252 ft | 486 kts | 8° |
| 2026-05-05 17:12 | 56.39373 | 19.65107 | 31633 ft | 485 kts | 8° |
| 2026-05-05 17:12 | 56.42653 | 19.66518 | 32005 ft | 484 kts | 8° |
| 2026-05-05 17:13 | 56.45930 | 19.67932 | 32381 ft | 483 kts | 8° |
| 2026-05-05 17:13 | 56.49193 | 19.69341 | 32746 ft | 482 kts | 8° |
| 2026-05-05 17:13 | 56.52461 | 19.70754 | 32896 ft | 483 kts | 8° |
| 2026-05-05 17:13 | 56.55727 | 19.72174 | 32917 ft | 483 kts | 8° |
| 2026-05-05 17:14 | 56.62274 | 19.75026 | 32915 ft | 483 kts | 8° |
| 2026-05-05 17:14 | 56.68796 | 19.77880 | 32913 ft | 482 kts | 8° |
| 2026-05-05 17:15 | 56.75312 | 19.80737 | 32912 ft | 481 kts | 8° |
| 2026-05-05 17:15 | 56.81828 | 19.83602 | 32911 ft | 481 kts | 8° |
| 2026-05-05 17:16 | 56.88339 | 19.86481 | 32907 ft | 481 kts | 8° |
| 2026-05-05 17:16 | 56.94807 | 19.89347 | 32931 ft | 481 kts | 8° |
| 2026-05-05 17:17 | 57.01298 | 19.92266 | 32921 ft | 481 kts | 9° |
| 2026-05-05 17:17 | 57.07744 | 19.95628 | 32914 ft | 482 kts | 12° |
| 2026-05-05 17:18 | 57.14152 | 19.99273 | 32909 ft | 482 kts | 12° |
| 2026-05-05 17:18 | 57.20569 | 20.02891 | 32904 ft | 482 kts | 11° |
| 2026-05-05 17:19 | 57.26995 | 20.06425 | 32903 ft | 481 kts | 11° |
| 2026-05-05 17:19 | 57.33379 | 20.09905 | 32900 ft | 481 kts | 11° |
| 2026-05-05 17:20 | 57.39805 | 20.13440 | 32896 ft | 481 kts | 11° |
| 2026-05-05 17:20 | 57.46218 | 20.17010 | 32942 ft | 481 kts | 11° |
| 2026-05-05 17:21 | 57.52636 | 20.20580 | 32909 ft | 482 kts | 11° |
| 2026-05-05 17:22 | 57.62272 | 20.25964 | 32891 ft | 482 kts | 11° |
| 2026-05-05 17:22 | 57.68697 | 20.29583 | 32929 ft | 482 kts | 10° |
| 2026-05-05 17:23 | 57.75125 | 20.33206 | 32886 ft | 483 kts | 10° |
| 2026-05-05 17:23 | 57.81520 | 20.36821 | 32877 ft | 483 kts | 10° |
| 2026-05-05 17:24 | 57.87960 | 20.40480 | 32875 ft | 484 kts | 11° |
| 2026-05-05 17:24 | 57.94404 | 20.44158 | 32876 ft | 484 kts | 11° |
| 2026-05-05 17:25 | 58.00860 | 20.47861 | 32888 ft | 485 kts | 10° |
| 2026-05-05 17:25 | 58.07323 | 20.51567 | 32876 ft | 486 kts | 10° |
| 2026-05-05 17:26 | 58.13794 | 20.55297 | 32882 ft | 486 kts | 10° |
| 2026-05-05 17:26 | 58.20274 | 20.59052 | 32873 ft | 487 kts | 10° |
| 2026-05-05 17:27 | 58.26755 | 20.62827 | 32894 ft | 488 kts | 10° |
| 2026-05-05 17:27 | 58.33208 | 20.66591 | 32874 ft | 488 kts | 10° |
| 2026-05-05 17:28 | 58.39669 | 20.70719 | 32869 ft | 491 kts | 13° |
| 2026-05-05 17:28 | 58.46098 | 20.75269 | 32869 ft | 493 kts | 14° |
| 2026-05-05 17:29 | 58.52522 | 20.79861 | 32896 ft | 493 kts | 13° |
| 2026-05-05 17:29 | 58.58982 | 20.84359 | 32875 ft | 494 kts | 12° |
| 2026-05-05 17:30 | 58.65453 | 20.88807 | 32870 ft | 494 kts | 12° |
| 2026-05-05 17:30 | 58.71932 | 20.93293 | 32868 ft | 495 kts | 12° |
| 2026-05-05 17:31 | 58.78410 | 20.97841 | 32900 ft | 496 kts | 12° |
| 2026-05-05 17:31 | 58.84891 | 21.02406 | 32882 ft | 496 kts | 12° |
| 2026-05-05 17:32 | 58.91374 | 21.06991 | 32874 ft | 496 kts | 12° |
| 2026-05-05 17:32 | 58.97814 | 21.11678 | 32871 ft | 501 kts | 17° |
| 2026-05-05 17:33 | 59.03761 | 21.19109 | 32883 ft | 519 kts | 37° |
| 2026-05-05 17:33 | 59.08402 | 21.29978 | 32859 ft | 529 kts | 57° |
| 2026-05-05 17:34 | 59.11796 | 21.42737 | 32848 ft | 531 kts | 62° |
| 2026-05-05 17:34 | 59.15118 | 21.55609 | 32863 ft | 532 kts | 62° |
| 2026-05-05 17:35 | 59.18417 | 21.68527 | 32853 ft | 532 kts | 62° |
| 2026-05-05 17:35 | 59.21710 | 21.81456 | 32912 ft | 533 kts | 62° |
| 2026-05-05 17:36 | 59.24998 | 21.94429 | 32881 ft | 533 kts | 62° |
| 2026-05-05 17:36 | 59.28282 | 22.07446 | 32877 ft | 533 kts | 62° |
| 2026-05-05 17:37 | 59.31519 | 22.20382 | 32879 ft | 533 kts | 63° |
| 2026-05-05 17:37 | 59.34768 | 22.33444 | 32873 ft | 533 kts | 63° |
| 2026-05-05 17:38 | 59.38005 | 22.46545 | 32874 ft | 533 kts | 63° |
| 2026-05-05 17:38 | 59.41234 | 22.59675 | 32859 ft | 533 kts | 63° |
| 2026-05-05 17:39 | 59.44445 | 22.72824 | 32874 ft | 534 kts | 63° |
| 2026-05-05 17:39 | 59.47643 | 22.85995 | 32871 ft | 533 kts | 63° |
| 2026-05-05 17:40 | 59.50288 | 22.96943 | 32869 ft | 533 kts | 63° |
| 2026-05-05 17:40 | 59.53453 | 23.10167 | 32866 ft | 533 kts | 64° |
| 2026-05-05 17:41 | 59.56156 | 23.23751 | 32865 ft | 533 kts | 72° |
| 2026-05-05 17:41 | 59.58395 | 23.37697 | 32857 ft | 533 kts | 72° |
| 2026-05-05 17:42 | 59.60620 | 23.51659 | 32826 ft | 533 kts | 72° |
| 2026-05-05 17:42 | 59.62812 | 23.65544 | 32838 ft | 532 kts | 73° |
| 2026-05-05 17:43 | 59.65001 | 23.79524 | 32840 ft | 532 kts | 73° |
| 2026-05-05 17:43 | 59.67169 | 23.93519 | 32837 ft | 532 kts | 73° |
| 2026-05-05 17:44 | 59.69323 | 24.07518 | 32841 ft | 531 kts | 73° |
| 2026-05-05 17:44 | 59.71466 | 24.21531 | 32849 ft | 532 kts | 73° |
| 2026-05-05 17:45 | 59.73594 | 24.35579 | 32804 ft | 532 kts | 73° |
| 2026-05-05 17:45 | 59.75685 | 24.49658 | 32820 ft | 532 kts | 75° |
| 2026-05-05 17:46 | 59.77547 | 24.63864 | 32825 ft | 532 kts | 77° |
| 2026-05-05 17:46 | 59.79268 | 24.78145 | 32832 ft | 532 kts | 77° |
| 2026-05-05 17:47 | 59.81017 | 24.92428 | 32828 ft | 532 kts | 76° |
| 2026-05-05 17:47 | 59.82811 | 25.06696 | 32885 ft | 532 kts | 76° |
| 2026-05-05 17:48 | 59.84592 | 25.20987 | 32804 ft | 532 kts | 77° |
| 2026-05-05 17:48 | 59.86343 | 25.35294 | 32816 ft | 532 kts | 77° |
| 2026-05-05 17:49 | 59.88066 | 25.49616 | 32830 ft | 532 kts | 77° |
| 2026-05-05 17:49 | 59.89770 | 25.63946 | 32819 ft | 531 kts | 77° |
| 2026-05-05 17:50 | 59.91473 | 25.78275 | 32820 ft | 531 kts | 77° |
| 2026-05-05 17:50 | 59.93156 | 25.92625 | 32820 ft | 531 kts | 78° |
| 2026-05-05 17:51 | 59.94814 | 26.06948 | 32851 ft | 529 kts | 78° |
| 2026-05-05 17:51 | 59.96458 | 26.21275 | 32820 ft | 529 kts | 78° |
| 2026-05-05 17:52 | 59.98088 | 26.35522 | 32812 ft | 529 kts | 78° |
| 2026-05-05 17:52 | 59.99703 | 26.49880 | 32794 ft | 530 kts | 78° |
| 2026-05-05 17:53 | 60.01293 | 26.64249 | 32795 ft | 530 kts | 78° |
| 2026-05-05 17:53 | 60.02878 | 26.78631 | 32796 ft | 530 kts | 78° |
| 2026-05-05 17:54 | 60.04447 | 26.93039 | 32789 ft | 530 kts | 79° |
| 2026-05-05 17:54 | 60.05926 | 27.07476 | 32818 ft | 530 kts | 81° |
| 2026-05-05 17:55 | 60.07185 | 27.22019 | 32785 ft | 530 kts | 82° |
| 2026-05-05 17:55 | 60.08375 | 27.36593 | 32780 ft | 530 kts | 82° |
| 2026-05-05 17:56 | 60.09605 | 27.51171 | 32741 ft | 530 kts | 82° |
| 2026-05-05 17:56 | 60.10230 | 27.58390 | 32476 ft | 520 kts | 81° |
| 2026-05-05 17:56 | 60.10842 | 27.65448 | 32157 ft | 508 kts | 82° |
| 2026-05-05 17:56 | 60.11432 | 27.72364 | 31900 ft | 498 kts | 82° |
| 2026-05-05 17:57 | 60.11994 | 27.79064 | 31553 ft | 491 kts | 82° |
| 2026-05-05 17:57 | 60.12551 | 27.85815 | 30982 ft | 490 kts | 82° |
| 2026-05-05 17:57 | 60.13100 | 27.92546 | 30438 ft | 488 kts | 82° |
| 2026-05-05 17:57 | 60.13647 | 27.99264 | 29902 ft | 487 kts | 82° |
| 2026-05-05 17:58 | 60.14189 | 28.05950 | 29364 ft | 484 kts | 83° |
| 2026-05-05 17:58 | 60.14724 | 28.12604 | 28805 ft | 482 kts | 83° |
| 2026-05-05 17:58 | 60.15251 | 28.19210 | 28311 ft | 478 kts | 83° |
| 2026-05-05 17:58 | 60.15772 | 28.25783 | 27817 ft | 475 kts | 83° |
| 2026-05-05 17:59 | 60.16287 | 28.32309 | 27311 ft | 472 kts | 83° |
| 2026-05-05 17:59 | 60.16798 | 28.38811 | 26805 ft | 470 kts | 83° |
| 2026-05-05 17:59 | 60.17303 | 28.45282 | 26280 ft | 469 kts | 83° |
| 2026-05-05 17:59 | 60.17802 | 28.51747 | 25733 ft | 467 kts | 83° |
| 2026-05-05 18:00 | 60.18286 | 28.58206 | 25201 ft | 466 kts | 85° |
| 2026-05-05 18:00 | 60.18398 | 28.64661 | 24783 ft | 459 kts | 97° |
| 2026-05-05 18:00 | 60.17990 | 28.70977 | 24311 ft | 452 kts | 106° |
| 2026-05-05 18:00 | 60.17430 | 28.77159 | 23915 ft | 449 kts | 105° |
| 2026-05-05 18:01 | 60.16888 | 28.83316 | 23483 ft | 446 kts | 105° |
| 2026-05-05 18:01 | 60.16355 | 28.89441 | 23009 ft | 444 kts | 105° |
| 2026-05-05 18:01 | 60.15827 | 28.95525 | 22544 ft | 441 kts | 105° |
| 2026-05-05 18:01 | 60.15299 | 29.01557 | 22097 ft | 437 kts | 105° |
| 2026-05-05 18:02 | 60.14769 | 29.07546 | 21657 ft | 433 kts | 105° |
| 2026-05-05 18:02 | 60.14242 | 29.13428 | 21194 ft | 422 kts | 105° |
| 2026-05-05 18:02 | 60.13723 | 29.19149 | 20672 ft | 412 kts | 105° |
| 2026-05-05 18:02 | 60.13213 | 29.24738 | 20172 ft | 403 kts | 105° |
| 2026-05-05 18:03 | 60.12718 | 29.30149 | 19652 ft | 396 kts | 105° |
| 2026-05-05 18:03 | 60.12222 | 29.35534 | 19110 ft | 391 kts | 105° |
| 2026-05-05 18:03 | 60.11727 | 29.40869 | 18590 ft | 388 kts | 105° |
| 2026-05-05 18:03 | 60.11230 | 29.46199 | 18058 ft | 390 kts | 105° |
| 2026-05-05 18:04 | 60.10731 | 29.51533 | 17444 ft | 389 kts | 105° |
| 2026-05-05 18:04 | 60.10233 | 29.56860 | 16847 ft | 390 kts | 105° |
| 2026-05-05 18:04 | 60.09731 | 29.62183 | 16393 ft | 386 kts | 106° |
| 2026-05-05 18:04 | 60.09234 | 29.67442 | 15934 ft | 382 kts | 106° |
| 2026-05-05 18:05 | 60.08740 | 29.72637 | 15500 ft | 377 kts | 106° |
| 2026-05-05 18:05 | 60.08252 | 29.77767 | 15068 ft | 373 kts | 106° |
| 2026-05-05 18:05 | 60.07766 | 29.82844 | 14641 ft | 369 kts | 107° |
| 2026-05-05 18:05 | 60.07282 | 29.87863 | 14179 ft | 365 kts | 107° |
| 2026-05-05 18:06 | 60.06800 | 29.92817 | 13795 ft | 360 kts | 107° |
| 2026-05-05 18:06 | 60.06477 | 29.96124 | 13513 ft | 358 kts | 107° |
| 2026-05-05 18:06 | 60.05772 | 30.02499 | 12897 ft | 348 kts | 115° |
| 2026-05-05 18:06 | 60.04829 | 30.06862 | 12447 ft | 336 kts | 128° |
| 2026-05-05 18:07 | 60.03565 | 30.10693 | 12006 ft | 327 kts | 134° |
| 2026-05-05 18:07 | 60.02266 | 30.14390 | 11548 ft | 323 kts | 134° |
| 2026-05-05 18:07 | 60.00978 | 30.18066 | 11064 ft | 322 kts | 134° |
| 2026-05-05 18:07 | 59.99696 | 30.21724 | 10526 ft | 321 kts | 134° |
| 2026-05-05 18:08 | 59.98412 | 30.25378 | 9987 ft | 321 kts | 134° |
| 2026-05-05 18:08 | 59.97127 | 30.29026 | 9424 ft | 320 kts | 133° |
| 2026-05-05 18:08 | 59.95856 | 30.32634 | 8821 ft | 315 kts | 133° |
| 2026-05-05 18:08 | 59.94609 | 30.36172 | 8241 ft | 309 kts | 133° |
| 2026-05-05 18:09 | 59.93381 | 30.39652 | 7664 ft | 304 kts | 133° |
| 2026-05-05 18:09 | 59.92194 | 30.43019 | 7414 ft | 287 kts | 133° |
| 2026-05-05 18:09 | 59.91092 | 30.46161 | 7280 ft | 267 kts | 134° |
| 2026-05-05 18:09 | 59.90051 | 30.49109 | 6878 ft | 260 kts | 134° |
| 2026-05-05 18:10 | 59.89011 | 30.52027 | 6424 ft | 256 kts | 134° |
| 2026-05-05 18:10 | 59.87983 | 30.54896 | 5944 ft | 253 kts | 134° |
| 2026-05-05 18:10 | 59.86962 | 30.57737 | 5445 ft | 251 kts | 134° |
| 2026-05-05 18:10 | 59.85950 | 30.60551 | 4954 ft | 249 kts | 133° |
| 2026-05-05 18:11 | 59.84947 | 30.63348 | 4464 ft | 247 kts | 132° |
| 2026-05-05 18:11 | 59.83951 | 30.66044 | 4224 ft | 234 kts | 139° |
| 2026-05-05 18:11 | 59.82716 | 30.67938 | 3958 ft | 219 kts | 163° |
| 2026-05-05 18:11 | 59.81294 | 30.68748 | 3651 ft | 209 kts | 182° |
| 2026-05-05 18:12 | 59.79882 | 30.68539 | 3368 ft | 200 kts | 202° |
| 2026-05-05 18:12 | 59.78656 | 30.67499 | 3209 ft | 186 kts | 219° |
| 2026-05-05 18:12 | 59.77720 | 30.65880 | 3042 ft | 174 kts | 236° |
| 2026-05-05 18:12 | 59.77104 | 30.63941 | 2925 ft | 161 kts | 249° |
| 2026-05-05 18:13 | 59.76623 | 30.61960 | 2744 ft | 157 kts | 249° |
| 2026-05-05 18:13 | 59.76170 | 30.60043 | 2598 ft | 148 kts | 256° |
| 2026-05-05 18:13 | 59.76041 | 30.58151 | 2535 ft | 132 kts | 279° |
| 2026-05-05 18:13 | 59.76268 | 30.56402 | 2519 ft | 130 kts | 284° |
| 2026-05-05 18:14 | 59.76489 | 30.54669 | 2507 ft | 130 kts | 285° |
| 2026-05-05 18:14 | 59.76724 | 30.52972 | 2411 ft | 129 kts | 286° |
| 2026-05-05 18:14 | 59.76972 | 30.51263 | 2272 ft | 129 kts | 287° |
| 2026-05-05 18:14 | 59.77223 | 30.49561 | 2116 ft | 128 kts | 287° |
| 2026-05-05 18:15 | 59.77476 | 30.47867 | 1940 ft | 128 kts | 287° |
| 2026-05-05 18:15 | 59.77730 | 30.46176 | 1768 ft | 128 kts | 287° |
| 2026-05-05 18:15 | 59.77986 | 30.44476 | 1586 ft | 129 kts | 287° |
| 2026-05-05 18:15 | 59.78241 | 30.42784 | 1414 ft | 128 kts | 288° |
| 2026-05-05 18:16 | 59.78495 | 30.41098 | 1225 ft | 128 kts | 287° |
| 2026-05-05 18:16 | 59.78748 | 30.39413 | 1044 ft | 127 kts | 287° |
| 2026-05-05 18:16 | 59.78999 | 30.37743 | 857 ft | 125 kts | 285° |
| 2026-05-05 18:16 | 59.79251 | 30.36080 | 684 ft | 128 kts | 285° |
| 2026-05-05 18:17 | 59.79499 | 30.34368 | 499 ft | 130 kts | 284° |
| 2026-05-05 18:17 | 59.79751 | 30.32652 | 350 ft | 130 kts | 287° |
| 2026-05-05 18:17 | 59.80012 | 30.30942 | 179 ft | 129 kts | 286° |
| 2026-05-05 18:17 | 59.80260 | 30.29278 | 82 ft | 114 kts | 286° |
| 2026-05-05 18:18 | 59.80450 | 30.28037 | 73 ft | 70 kts | 287° |
| 2026-05-05 18:18 | 59.80541 | 30.27438 | 78 ft | 24 kts | 287° |
| 2026-05-05 18:18 | 59.80582 | 30.27161 | 81 ft | 20 kts | 287° |
| 2026-05-05 18:18 | 59.80620 | 30.26909 | 83 ft | 18 kts | 286° |
| 2026-05-05 18:19 | 59.80643 | 30.26707 | 78 ft | 12 kts | 262° |
| 2026-05-05 18:19 | 59.80599 | 30.26641 | 80 ft | 5 kts | 195° |
| 2026-05-05 18:19 | 59.80568 | 30.26624 | 80 ft | 4 kts | 197° |
| 2026-05-05 18:19 | 59.80552 | 30.26614 | 79 ft | 2 kts | 197° |
| 2026-05-05 18:20 | 59.80538 | 30.26606 | 80 ft | 2 kts | 197° |
| 2026-05-05 18:20 | 59.80528 | 30.26600 | 80 ft | 2 kts | 197° |
| 2026-05-05 18:20 | 59.80504 | 30.26585 | 84 ft | 3 kts | 197° |
| 2026-05-05 18:20 | 59.80480 | 30.26571 | 81 ft | 4 kts | 197° |
| 2026-05-05 18:21 | 59.80459 | 30.26557 | 81 ft | 0 kts | 197° |
| 2026-05-05 18:22 | 59.80458 | 30.26557 | 81 ft | 1 kts | 197° |
| 2026-05-05 18:22 | 59.80439 | 30.26523 | 80 ft | 6 kts | 234° |
| 2026-05-05 18:23 | 59.80396 | 30.26468 | 80 ft | 8 kts | 194° |
| 2026-05-05 18:23 | 59.80339 | 30.26450 | 81 ft | 9 kts | 180° |
| 2026-05-05 18:23 | 59.80278 | 30.26428 | 81 ft | 9 kts | 198° |
| 2026-05-05 18:23 | 59.80214 | 30.26390 | 80 ft | 10 kts | 195° |
| 2026-05-05 18:24 | 59.80146 | 30.26350 | 80 ft | 10 kts | 197° |
| 2026-05-05 18:24 | 59.80084 | 30.26313 | 83 ft | 8 kts | 197° |
| 2026-05-05 18:24 | 59.80029 | 30.26280 | 80 ft | 7 kts | 196° |
| 2026-05-05 18:24 | 59.80008 | 30.26301 | 82 ft | 5 kts | 119° |
| 2026-05-05 18:25 | 59.79996 | 30.26382 | 83 ft | 4 kts | 106° |
| 2026-05-05 18:25 | 59.79993 | 30.26400 | 82 ft | 4 kts | 106° |
| 2026-05-05 18:25 | 59.79989 | 30.26429 | 81 ft | 0 kts | 106° |